Terminal Aerodrome Forecast
Issued by NWS Green Bay, WI

Home | Current Version | Previous Version | Text Only | Print | Product List | Glossary Off
Versions: 1 2 3 4 5 6 7 8 9 10 11 12 13 14 15 16 17 18 19 20 21 22 23 24 25 26 27 28 29 30 31 32 33 34 35 36 37 38 39 40

465
FTUS43 KGRB 221921 AAB
TAFGRB
TAF AMD
KGRB 221921Z 2219/2318 31015G22KT P6SM SCT060
     FM230000 30007KT P6SM FEW060
     FM231500 33008KT P6SM SCT040=

USA.gov is the U.S. government's official web portal to all federal, state and local government web resources and services.